Time;durP1;ratioP1;P1;durP2;ratioP2;P2;SDS_P1;SDS_P2;PMS_P1;PMS_P2;Temp;Humidity;BMP_temperature;BMP_pressure;BME280_temperature;BME280_humidity;BME280_pressure;Samples;Min_cycle;Max_cycle;Signal;HPM_P1;HPM_P2
2021/04/05 00:01:15;;;;;;;4.07;3.10;;;4.50;99.90;;;;;;5114044;28;20629;-66
2021/04/05 00:03:40;;;;;;;4.07;2.40;;;4.30;99.90;;;;;;5113629;28;20546;-65
2021/04/05 00:06:06;;;;;;;6.80;3.67;;;4.20;99.90;;;;;;5116081;28;20394;-66
2021/04/05 00:08:31;;;;;;;1.63;1.53;;;4.10;99.90;;;;;;5117608;28;20192;-66
2021/04/05 00:10:57;;;;;;;6.67;3.80;;;4.10;99.90;;;;;;5117874;28;20184;-66
2021/04/05 00:13:29;;;;;;;5.07;4.67;;;4.10;99.90;;;;;;5117471;28;20192;-66
2021/04/05 00:15:55;;;;;;;3.97;2.10;;;4.00;99.90;;;;;;5117792;28;20806;-65
2021/04/05 00:18:25;;;;;;;2.60;2.22;;;4.00;99.90;;;;;;5117362;28;20195;-66
2021/04/05 00:21:01;;;;;;;6.75;2.60;;;4.00;99.90;;;;;;5117621;28;20180;-66
2021/04/05 00:23:27;;;;;;;2.67;2.47;;;4.00;99.90;;;;;;5099006;28;20609;-67
2021/04/05 00:25:52;;;;;;;3.63;2.47;;;3.90;99.90;;;;;;5117482;28;20176;-66
2021/04/05 00:28:18;;;;;;;5.60;2.37;;;3.90;99.90;;;;;;5117225;28;20199;-66
2021/04/05 00:30:43;;;;;;;3.00;2.80;;;3.90;99.90;;;;;;5117110;28;20184;-66
2021/04/05 00:33:10;;;;;;;4.30;3.20;;;3.80;99.90;;;;;;5117157;28;20180;-67
2021/04/05 00:35:38;;;;;;;2.45;2.25;;;3.80;99.90;;;;;;5117197;28;20573;-67
2021/04/05 00:38:06;;;;;;;2.80;2.55;;;3.90;99.90;;;;;;5116975;28;20236;-66
2021/04/05 00:40:38;;;;;;;4.07;2.40;;;3.90;99.90;;;;;;5117022;28;20195;-66
2021/04/05 00:43:05;;;;;;;5.38;2.83;;;3.90;99.90;;;;;;5098617;28;20191;-67
2021/04/05 00:45:32;;;;;;;3.53;3.00;;;4.00;99.90;;;;;;5116950;28;20180;-65
2021/04/05 00:47:57;;;;;;;3.85;3.30;;;3.90;99.90;;;;;;5116563;28;20282;-67
2021/04/05 00:50:33;;;;;;;4.67;2.80;;;3.80;99.90;;;;;;5117148;28;20260;-67
2021/04/05 00:53:01;;;;;;;6.60;3.67;;;3.90;99.90;;;;;;5116086;28;20198;-65
2021/04/05 00:55:28;;;;;;;3.20;2.78;;;3.70;99.90;;;;;;5116880;28;20219;-66
2021/04/05 00:57:58;;;;;;;3.08;2.22;;;3.70;99.90;;;;;;5116550;28;20196;-67
2021/04/05 01:00:34;;;;;;;4.40;2.97;;;3.60;99.90;;;;;;5098451;28;20588;-65
2021/04/05 01:03:01;;;;;;;3.45;2.97;;;3.70;99.90;;;;;;5116585;28;20187;-65
2021/04/05 01:05:26;;;;;;;4.97;3.15;;;3.70;99.90;;;;;;5098436;28;20183;-65
2021/04/05 01:07:53;;;;;;;6.83;4.03;;;3.70;99.90;;;;;;5116437;28;20237;-65
2021/04/05 01:10:19;;;;;;;9.30;4.70;;;3.70;99.90;;;;;;5116523;28;20258;-66
2021/04/05 01:12:45;;;;;;;6.25;2.53;;;3.70;99.90;;;;;;5116326;28;20191;-67
2021/04/05 01:15:12;;;;;;;3.33;2.47;;;3.60;99.90;;;;;;5116365;28;20233;-65
2021/04/05 01:17:38;;;;;;;3.05;2.50;;;3.70;99.90;;;;;;5096962;28;20172;-65
2021/04/05 01:20:12;;;;;;;3.63;2.97;;;3.60;99.90;;;;;;5115025;28;20172;-65
2021/04/05 01:22:39;;;;;;;9.63;4.63;;;3.30;99.90;;;;;;5097972;28;20171;-66
2021/04/05 01:25:10;;;;;;;2.33;1.70;;;3.20;99.90;;;;;;5116152;28;20236;-66
2021/04/05 01:27:36;;;;;;;5.68;3.15;;;3.40;99.90;;;;;;5116064;28;20168;-66
2021/04/05 01:30:27;;;;;;;2.20;2.00;;;3.50;99.90;;;;;;5116114;28;20243;-65
2021/04/05 01:33:01;;;;;;;2.55;2.35;;;3.60;99.90;;;;;;5116012;28;20195;-67
2021/04/05 01:35:27;;;;;;;5.55;3.50;;;3.50;99.90;;;;;;5097771;28;20688;-66
2021/04/05 01:37:52;;;;;;;3.40;3.10;;;3.50;99.90;;;;;;5097597;28;20333;-65
2021/04/05 01:40:18;;;;;;;2.87;2.67;;;3.40;99.90;;;;;;5115990;28;20423;-66
2021/04/05 01:42:43;;;;;;;7.13;3.93;;;3.40;99.90;;;;;;5115726;28;20222;-65
2021/04/05 01:45:09;;;;;;;22.40;9.77;;;3.40;99.90;;;;;;5097521;28;20178;-65
2021/04/05 01:47:35;;;;;;;43.80;21.77;;;3.30;99.90;;;;;;5097372;28;20172;-66
2021/04/05 01:50:01;;;;;;;68.30;34.70;;;3.30;99.90;;;;;;5115721;28;20238;-66
2021/04/05 01:52:26;;;;;;;93.50;39.77;;;3.30;99.90;;;;;;5115575;28;20225;-65
2021/04/05 01:54:52;;;;;;;85.03;45.47;;;3.20;99.90;;;;;;5097132;28;20214;-67
2021/04/05 01:57:17;;;;;;;103.10;50.60;;;3.10;99.90;;;;;;5097228;28;20547;-67
2021/04/05 01:59:43;;;;;;;114.00;49.40;;;3.30;99.90;;;;;;5115386;28;20187;-65
2021/04/05 02:02:09;;;;;;;107.53;50.27;;;3.00;99.90;;;;;;5097372;28;20180;-66
2021/04/05 02:04:35;;;;;;;93.93;45.70;;;3.20;99.90;;;;;;5115313;28;20964;-66
2021/04/05 02:07:02;;;;;;;126.68;54.70;;;3.20;99.90;;;;;;5097356;28;20187;-65
2021/04/05 02:09:28;;;;;;;88.43;48.00;;;2.70;99.90;;;;;;5115316;28;20256;-67
2021/04/05 02:11:54;;;;;;;87.30;45.07;;;2.60;99.90;;;;;;5115686;28;20184;-67
2021/04/05 02:14:20;;;;;;;94.73;49.30;;;2.90;99.90;;;;;;5115065;28;20290;-66
2021/04/05 02:16:45;;;;;;;81.97;46.40;;;2.80;99.90;;;;;;5115527;28;20444;-66
2021/04/05 02:19:15;;;;;;;88.97;47.83;;;2.80;99.90;;;;;;5115169;28;20200;-67
2021/04/05 02:21:46;;;;;;;93.00;45.22;;;2.70;99.90;;;;;;5115525;28;20276;-65
2021/04/05 02:24:13;;;;;;;96.35;48.42;;;2.90;99.90;;;;;;5115108;28;20709;-67
2021/04/05 02:26:39;;;;;;;98.25;43.42;;;2.80;99.90;;;;;;5115354;28;20183;-65
2021/04/05 02:29:06;;;;;;;94.25;49.88;;;2.80;99.90;;;;;;5114781;28;20396;-67
2021/04/05 02:31:34;;;;;;;63.05;39.10;;;2.60;99.90;;;;;;5115151;28;20183;-67
2021/04/05 02:34:00;;;;;;;77.38;36.65;;;2.80;99.90;;;;;;5114683;28;20203;-65
2021/04/05 02:36:28;;;;;;;66.23;33.17;;;2.90;99.90;;;;;;5115162;28;20180;-66
2021/04/05 02:38:59;;;;;;;59.78;26.45;;;2.90;99.90;;;;;;5113292;28;20402;-66
2021/04/05 02:41:27;;;;;;;60.58;30.20;;;2.90;99.90;;;;;;5114733;28;20267;-66
2021/04/05 02:43:53;;;;;;;52.70;28.63;;;2.90;99.90;;;;;;5114524;28;20676;-65
2021/04/05 02:46:26;;;;;;;64.95;29.30;;;2.80;99.90;;;;;;5114933;28;20180;-65
2021/04/05 02:48:56;;;;;;;46.65;20.95;;;2.80;99.90;;;;;;5114344;28;20228;-66
2021/04/05 02:51:22;;;;;;;26.23;17.45;;;2.90;99.90;;;;;;5114917;28;20180;-65
2021/04/05 02:53:54;;;;;;;32.85;17.45;;;2.70;99.90;;;;;;5114390;28;20672;-66
2021/04/05 02:56:21;;;;;;;20.52;13.60;;;2.80;99.90;;;;;;5114937;28;20223;-65
2021/04/05 02:58:50;;;;;;;20.88;11.25;;;2.80;99.90;;;;;;5114406;28;20248;-67
2021/04/05 03:01:16;;;;;;;19.23;15.52;;;2.80;99.90;;;;;;5114794;28;20184;-66
2021/04/05 03:03:44;;;;;;;19.95;10.90;;;2.70;99.90;;;;;;5114228;28;20188;-65
2021/04/05 03:06:13;;;;;;;22.88;12.02;;;2.80;99.90;;;;;;5114673;28;20183;-66
2021/04/05 03:08:38;;;;;;;17.30;10.10;;;2.80;99.90;;;;;;5114332;28;20643;-65
2021/04/05 03:11:05;;;;;;;17.37;9.87;;;2.90;99.90;;;;;;5114540;28;20215;-65
2021/04/05 03:13:33;;;;;;;15.63;6.93;;;2.80;99.90;;;;;;5114116;28;20192;-67
2021/04/05 03:15:59;;;;;;;16.42;7.05;;;2.80;99.90;;;;;;5114513;28;20176;-65
2021/04/05 03:18:26;;;;;;;10.25;5.22;;;2.80;99.90;;;;;;5114219;28;20630;-65
2021/04/05 03:20:52;;;;;;;12.48;5.35;;;2.70;99.90;;;;;;5095954;28;20268;-67
2021/04/05 03:23:21;;;;;;;11.13;6.80;;;2.70;99.90;;;;;;5114143;28;20187;-66
2021/04/05 03:25:47;;;;;;;8.55;5.18;;;2.80;99.90;;;;;;5114303;28;20649;-65
2021/04/05 03:28:13;;;;;;;24.53;5.27;;;2.70;99.90;;;;;;5095817;28;20207;-65
2021/04/05 03:30:49;;;;;;;9.97;6.17;;;2.70;99.90;;;;;;5114212;28;20172;-65
2021/04/05 03:33:31;;;;;;;7.03;6.20;;;2.70;99.90;;;;;;5114237;28;20601;-66
2021/04/05 03:36:01;;;;;;;10.85;6.07;;;2.50;99.90;;;;;;5114167;28;20198;-66
2021/04/05 03:38:27;;;;;;;17.02;10.43;;;2.30;99.90;;;;;;5114011;28;20194;-67
2021/04/05 03:40:57;;;;;;;36.43;22.50;;;2.40;99.90;;;;;;5097619;28;20613;-65
2021/04/05 03:43:29;;;;;;;57.75;26.17;;;2.30;99.90;;;;;;5118138;28;20191;-65
2021/04/05 03:46:01;;;;;;;74.38;37.47;;;2.20;99.90;;;;;;5118263;28;20176;-66
2021/04/05 03:48:38;;;;;;;84.53;44.28;;;2.30;99.90;;;;;;5099548;28;20580;-66
2021/04/05 03:51:19;;;;;;;102.60;51.00;;;2.30;99.90;;;;;;5118239;28;20525;-66
2021/04/05 03:54:07;;;;;;;141.48;68.13;;;2.20;99.90;;;;;;5117758;28;20219;-67
2021/04/05 03:56:37;;;;;;;173.98;75.38;;;2.00;99.90;;;;;;5118254;28;20243;-65
2021/04/05 03:59:08;;;;;;;167.15;77.30;;;1.90;99.90;;;;;;5117859;28;20201;-66
2021/04/05 04:01:43;;;;;;;165.82;72.50;;;1.90;99.90;;;;;;5118176;28;20692;-67
2021/04/05 04:04:13;;;;;;;173.60;77.88;;;2.10;99.90;;;;;;5117810;28;20218;-66
2021/04/05 04:06:49;;;;;;;142.75;70.40;;;1.80;99.90;;;;;;5118186;28;20199;-66
2021/04/05 04:09:18;;;;;;;141.88;69.20;;;1.90;99.90;;;;;;5117738;28;20692;-66
2021/04/05 04:11:47;;;;;;;148.52;63.83;;;1.90;99.90;;;;;;5117981;28;20172;-66
2021/04/05 04:14:15;;;;;;;143.32;64.63;;;2.00;99.90;;;;;;5099110;28;20215;-65
2021/04/05 04:16:41;;;;;;;145.80;63.88;;;1.90;99.90;;;;;;5117854;28;20179;-65
2021/04/05 04:19:07;;;;;;;158.93;68.07;;;1.70;99.90;;;;;;5117363;28;20196;-65
2021/04/05 04:21:35;;;;;;;148.77;71.60;;;1.80;99.90;;;;;;5117786;28;20577;-65
2021/04/05 04:24:01;;;;;;;173.40;71.70;;;1.90;99.90;;;;;;5117402;28;20435;-65
2021/04/05 04:26:31;;;;;;;148.30;73.40;;;1.90;99.90;;;;;;5117766;28;20172;-66
2021/04/05 04:28:57;;;;;;;176.93;83.65;;;2.00;99.90;;;;;;5098888;28;20436;-65
2021/04/05 04:31:23;;;;;;;159.83;69.97;;;2.00;99.90;;;;;;5117598;28;20179;-65
2021/04/05 04:33:48;;;;;;;118.57;59.93;;;2.00;99.90;;;;;;5117101;28;20196;-65
2021/04/05 04:36:22;;;;;;;107.47;54.33;;;1.70;99.90;;;;;;5117461;28;20423;-66
2021/04/05 04:38:49;;;;;;;85.70;37.80;;;1.60;99.90;;;;;;5117028;28;20273;-67
2021/04/05 04:41:23;;;;;;;74.78;39.88;;;1.70;99.90;;;;;;5098915;28;20183;-65
2021/04/05 04:44:03;;;;;;;70.13;36.15;;;1.90;99.90;;;;;;5116889;28;20216;-67
2021/04/05 04:46:29;;;;;;;62.63;31.52;;;2.00;99.90;;;;;;5117441;28;20174;-66
2021/04/05 04:48:56;;;;;;;36.17;24.65;;;1.90;99.90;;;;;;5116566;28;20708;-66
2021/04/05 04:51:22;;;;;;;30.67;17.77;;;2.10;99.90;;;;;;5117181;28;20191;-65
2021/04/05 04:53:48;;;;;;;37.13;18.10;;;2.20;99.90;;;;;;5116640;28;20199;-67
2021/04/05 04:56:15;;;;;;;32.50;16.20;;;2.30;99.90;;;;;;5117002;28;20415;-67
2021/04/05 04:58:42;;;;;;;35.10;20.90;;;2.10;99.90;;;;;;5098311;28;20199;-65
2021/04/05 05:01:08;;;;;;;40.58;23.63;;;2.30;99.90;;;;;;5116949;28;20194;-65
2021/04/05 05:03:36;;;;;;;38.88;24.02;;;2.50;99.90;;;;;;5116593;28;20195;-65
2021/04/05 05:06:02;;;;;;;31.60;15.95;;;2.60;99.90;;;;;;5116882;28;20262;-66
2021/04/05 05:08:29;;;;;;;31.55;17.63;;;2.70;99.90;;;;;;5116477;28;20194;-65
2021/04/05 05:10:54;;;;;;;26.92;15.65;;;2.80;99.90;;;;;;5116460;28;20192;-65
2021/04/05 05:13:20;;;;;;;29.90;14.13;;;2.90;99.90;;;;;;5116475;28;20683;-66
2021/04/05 05:15:47;;;;;;;25.63;14.53;;;3.00;99.90;;;;;;5116511;28;20255;-66
2021/04/05 05:18:13;;;;;;;27.35;14.25;;;3.10;99.90;;;;;;5116238;28;20195;-65
2021/04/05 05:20:38;;;;;;;25.87;12.03;;;3.20;99.90;;;;;;5097975;28;20190;-65
2021/04/05 05:23:05;;;;;;;34.73;14.50;;;3.20;99.90;;;;;;5116241;28;20503;-67
2021/04/05 05:25:33;;;;;;;22.98;12.80;;;3.20;99.90;;;;;;5116270;28;20187;-65
2021/04/05 05:28:07;;;;;;;49.20;24.92;;;3.40;99.90;;;;;;5116175;28;20215;-65
2021/04/05 05:30:34;;;;;;;49.95;24.35;;;3.40;99.90;;;;;;5116144;28;20183;-65
2021/04/05 05:33:03;;;;;;;50.00;24.33;;;3.30;99.90;;;;;;5116035;28;20245;-65
2021/04/05 05:35:28;;;;;;;32.90;19.45;;;3.40;99.90;;;;;;5097676;28;20219;-65
2021/04/05 05:38:00;;;;;;;24.97;15.00;;;3.40;99.90;;;;;;5115902;28;20286;-66
2021/04/05 05:40:27;;;;;;;24.02;15.50;;;3.50;99.90;;;;;;5116036;28;20258;-65
2021/04/05 05:43:29;;;;;;;18.88;11.48;;;3.60;99.90;;;;;;5115822;28;20671;-65
2021/04/05 05:46:14;;;;;;;17.70;8.18;;;3.70;99.90;;;;;;5097565;28;20179;-66
2021/04/05 05:48:54;;;;;;;10.52;6.32;;;3.80;99.90;;;;;;5115481;28;20219;-65
2021/04/05 05:51:28;;;;;;;23.20;9.43;;;4.00;99.90;;;;;;5116196;28;20196;-67
2021/04/05 05:54:07;;;;;;;29.58;16.23;;;4.10;99.90;;;;;;5097318;28;20696;-67
2021/04/05 05:56:50;;;;;;;10.43;7.22;;;4.30;99.90;;;;;;5115941;28;20172;-66
2021/04/05 05:59:35;;;;;;;12.10;8.80;;;4.30;99.90;;;;;;5115544;28;20282;-65
2021/04/05 06:02:23;;;;;;;12.15;7.57;;;4.40;99.90;;;;;;5116206;28;20653;-65
2021/04/05 06:04:54;;;;;;;10.18;7.05;;;4.60;99.90;;;;;;5114882;28;20195;-65
2021/04/05 06:07:40;;;;;;;7.38;4.75;;;4.70;99.90;;;;;;5115423;28;20551;-67
2021/04/05 06:10:24;;;;;;;5.65;4.65;;;4.90;99.90;;;;;;5064067;28;20190;-65
2021/04/05 06:13:17;;;;;;;10.88;6.10;;;5.00;99.90;;;;;;5114999;28;20247;-66
2021/04/05 06:16:04;;;;;;;13.57;5.78;;;5.30;99.90;;;;;;5115024;28;20219;-66
2021/04/05 06:18:48;;;;;;;3.47;2.25;;;5.40;99.90;;;;;;5115178;28;20214;-66
2021/04/05 06:21:26;;;;;;;4.43;3.85;;;5.50;99.90;;;;;;5115392;28;20633;-65
2021/04/05 06:23:54;;;;;;;10.13;5.47;;;5.70;99.90;;;;;;5115018;28;20708;-67
2021/04/05 06:26:51;;;;;;;10.38;5.28;;;6.00;99.90;;;;;;5115267;28;20203;-66
2021/04/05 06:30:00;;;;;;;5.22;3.28;;;6.10;99.90;;;;;;5114866;28;20188;-65
2021/04/05 06:32:46;;;;;;;8.55;4.85;;;6.30;99.90;;;;;;5114781;28;20214;-66
2021/04/05 06:35:21;;;;;;;4.43;3.58;;;6.40;99.80;;;;;;5114821;28;20280;-67
2021/04/05 06:37:54;;;;;;;8.63;5.05;;;6.60;98.60;;;;;;5114794;28;20716;-67
2021/04/05 06:40:22;;;;;;;4.43;2.60;;;6.80;99.60;;;;;;5114993;28;20179;-67
2021/04/05 06:43:29;;;;;;;3.83;2.78;;;7.10;98.10;;;;;;5114617;28;20267;-66
2021/04/05 06:46:03;;;;;;;10.45;7.07;;;7.20;97.70;;;;;;5058123;28;20295;-66
2021/04/05 06:48:47;;;;;;;7.07;3.25;;;7.20;97.20;;;;;;5114401;28;20219;-66
2021/04/05 06:51:48;;;;;;;5.68;4.97;;;7.40;96.80;;;;;;5114999;28;20648;-66
2021/04/05 06:54:35;;;;;;;4.25;2.40;;;7.60;95.60;;;;;;5096231;28;20225;-65
2021/04/05 06:57:07;;;;;;;7.05;3.13;;;7.70;94.60;;;;;;5115282;28;20644;-67
2021/04/05 06:59:51;;;;;;;3.25;2.92;;;7.70;94.00;;;;;;5096199;28;20606;-66
2021/04/05 07:02:37;;;;;;;3.78;2.78;;;7.90;94.50;;;;;;5113191;28;20183;-67
2021/04/05 07:05:12;;;;;;;2.83;2.63;;;8.00;93.00;;;;;;5045653;28;20522;-67
2021/04/05 07:08:01;;;;;;;3.58;3.10;;;8.10;92.20;;;;;;5114318;28;20151;-66
2021/04/05 07:10:35;;;;;;;4.30;3.70;;;8.30;91.60;;;;;;5114487;28;20175;-66
2021/04/05 07:13:15;;;;;;;3.53;2.45;;;8.60;91.60;;;;;;5114373;28;20182;-66
2021/04/05 07:16:02;;;;;;;3.63;3.33;;;8.80;91.20;;;;;;5113542;28;20268;-65
2021/04/05 07:18:34;;;;;;;4.20;3.65;;;8.90;90.50;;;;;;5114204;28;20198;-66
2021/04/05 07:21:12;;;;;;;3.30;3.00;;;9.10;89.30;;;;;;5114245;28;20183;-66
2021/04/05 07:23:52;;;;;;;4.55;3.13;;;9.10;88.50;;;;;;5114146;28;20555;-66
2021/04/05 07:26:27;;;;;;;4.05;2.55;;;9.30;86.60;;;;;;5114499;28;20500;-67
2021/04/05 07:29:20;;;;;;;4.20;3.10;;;9.30;88.00;;;;;;5095860;28;20652;-66
2021/04/05 07:32:12;;;;;;;2.30;2.10;;;9.10;85.20;;;;;;5114543;28;20207;-66
2021/04/05 07:34:53;;;;;;;2.45;1.80;;;9.40;84.30;;;;;;5112703;28;20681;-66
2021/04/05 07:37:39;;;;;;;3.13;2.25;;;9.60;82.90;;;;;;5114140;28;20194;-66
2021/04/05 07:40:43;;;;;;;3.03;2.60;;;9.60;82.10;;;;;;5095758;28;20267;-65
2021/04/05 07:43:31;;;;;;;3.80;2.30;;;9.70;81.90;;;;;;5113926;28;20191;-66
2021/04/05 07:46:19;;;;;;;3.67;2.60;;;9.80;81.70;;;;;;5095830;28;20705;-66
2021/04/05 07:48:58;;;;;;;12.57;3.30;;;9.90;81.50;;;;;;5100150;28;20240;-66
2021/04/05 07:51:48;;;;;;;2.45;2.05;;;10.00;79.60;;;;;;5114294;28;20176;-66
2021/04/05 07:54:17;;;;;;;4.53;2.60;;;9.90;77.90;;;;;;5095574;28;20622;-66
2021/04/05 07:57:03;;;;;;;7.22;5.15;;;9.80;78.20;;;;;;5114263;28;20208;-66
2021/04/05 07:59:46;;;;;;;3.25;2.58;;;9.90;77.50;;;;;;5113830;28;20677;-66
2021/04/05 08:02:12;;;;;;;5.70;2.63;;;10.10;78.60;;;;;;5113759;28;20187;-67
2021/04/05 08:04:37;;;;;;;4.03;2.10;;;10.20;76.80;;;;;;5113667;28;20196;-66
2021/04/05 08:07:09;;;;;;;2.50;1.57;;;10.40;76.70;;;;;;5114219;28;20254;-66
2021/04/05 08:09:51;;;;;;;5.65;2.83;;;10.60;76.70;;;;;;5095413;28;20195;-66
2021/04/05 08:12:23;;;;;;;2.38;2.17;;;10.40;77.50;;;;;;5095523;28;20176;-68
2021/04/05 08:15:11;;;;;;;7.43;2.95;;;10.70;75.90;;;;;;5113511;28;20673;-67
2021/04/05 08:17:58;;;;;;;2.60;2.30;;;10.40;75.90;;;;;;5113655;28;20179;-67
2021/04/05 08:20:27;;;;;;;3.97;2.60;;;10.50;76.80;;;;;;5112457;28;20237;-66
2021/04/05 08:23:14;;;;;;;4.28;2.78;;;10.90;74.90;;;;;;5113509;28;20282;-67
2021/04/05 08:25:58;;;;;;;3.15;1.77;;;11.00;74.90;;;;;;5113846;28;20176;-66
2021/04/05 08:28:46;;;;;;;4.20;2.92;;;10.60;74.90;;;;;;5117395;28;20194;-66
2021/04/05 08:31:36;;;;;;;7.28;5.68;;;11.00;75.50;;;;;;5117503;28;20230;-67
2021/04/05 08:34:20;;;;;;;4.72;1.85;;;11.20;74.00;;;;;;5117172;28;20195;-66
2021/04/05 08:36:55;;;;;;;3.70;2.03;;;11.00;75.10;;;;;;5117561;28;20179;-66
2021/04/05 08:39:58;;;;;;;5.20;4.10;;;11.10;73.00;;;;;;5117219;28;20695;-67
2021/04/05 08:42:29;;;;;;;4.50;2.43;;;11.50;72.80;;;;;;5117127;28;20648;-67
2021/04/05 08:45:02;;;;;;;2.38;2.17;;;12.10;72.00;;;;;;5116948;28;20392;-67
2021/04/05 08:47:31;;;;;;;4.27;3.50;;;12.20;70.00;;;;;;5098672;28;20281;-66
2021/04/05 08:50:07;;;;;;;2.47;2.27;;;12.60;69.50;;;;;;5098752;28;20470;-66
2021/04/05 08:52:38;;;;;;;2.20;2.00;;;13.20;68.50;;;;;;5116822;28;20444;-66
2021/04/05 08:55:05;;;;;;;3.00;2.30;;;13.50;67.00;;;;;;5116920;28;20463;-66
2021/04/05 08:57:38;;;;;;;4.83;2.70;;;13.90;66.00;;;;;;5116675;28;20495;-66
2021/04/05 09:00:09;;;;;;;6.17;3.00;;;14.20;65.00;;;;;;5116868;28;20450;-67
2021/04/05 09:02:49;;;;;;;7.47;2.30;;;13.90;64.60;;;;;;5098329;28;20416;-66
2021/04/05 09:05:19;;;;;;;2.80;2.33;;;13.30;65.30;;;;;;5116708;28;20416;-68
2021/04/05 09:08:03;;;;;;;3.93;2.50;;;13.50;64.80;;;;;;5116498;28;20893;-68
2021/04/05 09:10:42;;;;;;;2.40;2.20;;;13.50;64.30;;;;;;5116722;28;20412;-67
2021/04/05 09:13:13;;;;;;;2.30;2.00;;;13.30;64.00;;;;;;5116568;28;20461;-67
2021/04/05 09:16:03;;;;;;;2.00;1.90;;;13.70;63.80;;;;;;5116477;28;20503;-66
2021/04/05 09:18:50;;;;;;;2.83;2.50;;;12.80;63.00;;;;;;5116367;28;20536;-66
2021/04/05 09:22:01;;;;;;;3.77;2.83;;;12.60;64.20;;;;;;5115117;28;20773;-66
2021/04/05 09:24:48;;;;;;;3.00;2.57;;;12.60;65.50;;;;;;5097902;28;20807;-67
2021/04/05 09:27:35;;;;;;;3.03;2.23;;;12.40;65.20;;;;;;5116761;28;21039;-66
2021/04/05 09:30:30;;;;;;;4.40;3.17;;;12.60;64.60;;;;;;5116096;28;20515;-68
2021/04/05 09:33:02;;;;;;;3.07;2.77;;;12.50;64.50;;;;;;5114795;28;20797;-67
2021/04/05 09:35:50;;;;;;;2.83;2.40;;;13.20;64.10;;;;;;5116058;28;20468;-67
2021/04/05 09:38:46;;;;;;;3.00;2.70;;;12.70;65.20;;;;;;5096851;28;20428;-66
2021/04/05 09:41:33;;;;;;;3.37;2.73;;;12.10;64.30;;;;;;5097533;28;20447;-68
2021/04/05 09:44:28;;;;;;;3.60;2.77;;;13.00;65.30;;;;;;5114462;28;20447;-67
2021/04/05 09:46:54;;;;;;;4.97;3.90;;;12.90;63.80;;;;;;5097690;28;20427;-68
2021/04/05 09:49:44;;;;;;;2.60;2.37;;;13.10;62.80;;;;;;5115648;28;20821;-67
2021/04/05 09:52:45;;;;;;;7.27;6.47;;;13.00;65.00;;;;;;5116226;28;20180;-67
2021/04/05 09:55:14;;;;;;;7.83;3.70;;;12.70;64.50;;;;;;5025137;28;20471;-67
2021/04/05 09:57:58;;;;;;;7.50;5.67;;;13.10;64.20;;;;;;5115622;28;20385;-67
2021/04/05 10:00:26;;;;;;;4.10;3.60;;;12.50;63.30;;;;;;5097340;28;20434;-67
2021/04/05 10:03:02;;;;;;;2.83;2.50;;;12.70;63.50;;;;;;5115437;28;20944;-68
2021/04/05 10:05:32;;;;;;;3.10;2.33;;;13.10;63.40;;;;;;5115685;28;20408;-67
2021/04/05 10:07:58;;;;;;;3.60;2.80;;;13.30;64.90;;;;;;5115386;28;20463;-66
2021/04/05 10:10:28;;;;;;;3.43;2.80;;;13.40;63.50;;;;;;5115367;28;20408;-66
2021/04/05 10:12:57;;;;;;;7.00;3.27;;;13.60;62.20;;;;;;5115202;28;20428;-67
2021/04/05 10:15:25;;;;;;;3.30;2.70;;;12.90;62.90;;;;;;5115266;28;20471;-67
2021/04/05 10:17:59;;;;;;;3.63;3.33;;;13.10;62.70;;;;;;5115081;28;20575;-67
2021/04/05 10:20:27;;;;;;;6.20;3.17;;;13.00;61.80;;;;;;5115269;28;20553;-67
2021/04/05 10:22:56;;;;;;;3.33;2.47;;;12.90;61.70;;;;;;5096710;28;20506;-67
2021/04/05 10:25:25;;;;;;;4.30;2.53;;;12.90;62.10;;;;;;5115059;28;20499;-66
2021/04/05 10:27:58;;;;;;;3.17;2.87;;;13.30;61.50;;;;;;5096689;28;20795;-68
2021/04/05 10:30:36;;;;;;;3.27;2.70;;;12.80;61.70;;;;;;5115149;28;20509;-67
2021/04/05 10:33:09;;;;;;;3.53;2.20;;;13.20;60.70;;;;;;5114483;28;20447;-67
2021/04/05 10:35:40;;;;;;;3.60;2.50;;;13.20;60.70;;;;;;5112819;28;20479;-67
2021/04/05 10:38:05;;;;;;;3.10;2.63;;;13.20;61.90;;;;;;5094412;28;20451;-67
2021/04/05 10:40:33;;;;;;;2.97;2.60;;;13.20;61.60;;;;;;5112866;28;20412;-67
2021/04/05 10:43:22;;;;;;;2.67;2.03;;;13.70;61.30;;;;;;5112975;28;20424;-67
2021/04/05 10:46:00;;;;;;;4.43;2.90;;;13.90;60.10;;;;;;5103020;28;20436;-66
2021/04/05 10:48:58;;;;;;;3.40;2.90;;;13.90;60.50;;;;;;5112655;28;20822;-67
2021/04/05 10:51:38;;;;;;;4.90;2.97;;;13.50;60.90;;;;;;5112732;28;20929;-67
2021/04/05 10:54:27;;;;;;;3.70;3.10;;;14.20;59.40;;;;;;5114316;28;20415;-68
2021/04/05 10:57:03;;;;;;;4.60;2.70;;;13.70;59.20;;;;;;5114910;28;20431;-67
2021/04/05 10:59:30;;;;;;;2.30;2.10;;;13.60;60.30;;;;;;5114472;28;20428;-67
2021/04/05 11:02:33;;;;;;;4.77;3.80;;;13.10;60.10;;;;;;5113304;28;20435;-68
2021/04/05 11:05:25;;;;;;;7.57;2.60;;;13.20;61.10;;;;;;5034976;28;20497;-67
2021/04/05 11:07:58;;;;;;;4.10;2.30;;;13.50;59.90;;;;;;5091321;28;20560;-67
2021/04/05 11:10:27;;;;;;;7.53;3.13;;;13.10;59.60;;;;;;5113059;28;20420;-67
2021/04/05 11:13:01;;;;;;;4.23;3.33;;;13.90;60.90;;;;;;5114180;28;20819;-68
2021/04/05 11:15:28;;;;;;;4.43;3.40;;;14.10;58.90;;;;;;5114255;28;20539;-67
2021/04/05 11:17:56;;;;;;;3.77;2.37;;;13.80;59.70;;;;;;5114060;28;20427;-68
2021/04/05 11:20:29;;;;;;;4.03;2.63;;;14.00;60.60;;;;;;5114200;28;20415;-68
2021/04/05 11:23:19;;;;;;;3.70;2.33;;;13.90;59.70;;;;;;5114095;28;20427;-67
2021/04/05 11:25:48;;;;;;;5.23;3.03;;;14.30;59.00;;;;;;5106523;28;20468;-67
2021/04/05 11:28:20;;;;;;;3.90;3.20;;;14.40;58.30;;;;;;5114209;28;20501;-66
2021/04/05 11:30:48;;;;;;;8.43;3.50;;;14.50;58.90;;;;;;5114306;28;20431;-67
2021/04/05 11:33:22;;;;;;;4.17;2.70;;;13.90;59.10;;;;;;5096165;28;20439;-67
2021/04/05 11:35:52;;;;;;;2.90;2.27;;;13.50;59.30;;;;;;5095777;28;20475;-66
2021/04/05 11:38:20;;;;;;;6.73;3.00;;;13.70;59.60;;;;;;5114088;28;20527;-66
2021/04/05 11:40:48;;;;;;;3.57;2.50;;;14.00;58.60;;;;;;5114260;28;20426;-67
2021/04/05 11:43:18;;;;;;;4.37;2.33;;;13.90;59.20;;;;;;5113972;28;20420;-67
2021/04/05 11:45:48;;;;;;;5.73;3.07;;;14.00;57.50;;;;;;5110719;28;20424;-66
2021/04/05 11:48:20;;;;;;;5.17;3.27;;;13.90;59.30;;;;;;5113615;28;20458;-67
2021/04/05 11:50:47;;;;;;;5.37;4.27;;;13.80;58.90;;;;;;5114170;28;20463;-67
2021/04/05 11:53:54;;;;;;;5.50;3.47;;;13.80;58.90;;;;;;5113762;28;20476;-67
2021/04/05 11:56:25;;;;;;;6.00;4.03;;;13.80;59.40;;;;;;5114314;28;20434;-67
2021/04/05 11:59:07;;;;;;;4.53;3.13;;;14.10;58.80;;;;;;5095599;28;21459;-67
2021/04/05 12:01:42;;;;;;;4.93;3.20;;;14.20;58.10;;;;;;5115391;28;20412;-66
2021/04/05 12:04:15;;;;;;;5.73;2.30;;;13.70;58.00;;;;;;5099412;28;20439;-68
2021/04/05 12:06:53;;;;;;;4.10;2.57;;;13.70;58.20;;;;;;5118283;28;20803;-67
2021/04/05 12:09:26;;;;;;;5.40;3.20;;;14.00;57.80;;;;;;5117803;28;20932;-67
2021/04/05 12:11:55;;;;;;;3.13;2.77;;;14.60;57.50;;;;;;5118117;28;20412;-67
2021/04/05 12:14:26;;;;;;;5.10;3.23;;;14.00;57.50;;;;;;5117501;28;20462;-67
2021/04/05 12:16:54;;;;;;;3.47;2.60;;;14.00;57.10;;;;;;5117552;28;20924;-67
2021/04/05 12:19:37;;;;;;;5.03;2.73;;;14.00;58.60;;;;;;5099197;28;20451;-67
2021/04/05 12:22:04;;;;;;;5.10;3.30;;;14.60;57.90;;;;;;5118256;28;20431;-67
2021/04/05 12:24:32;;;;;;;2.33;1.83;;;14.30;56.80;;;;;;5117479;28;20503;-67
2021/04/05 12:27:05;;;;;;;2.93;2.50;;;14.00;57.20;;;;;;5117911;28;20415;-67
2021/04/05 12:29:32;;;;;;;4.20;2.73;;;13.80;58.30;;;;;;5117285;28;20427;-67
2021/04/05 12:31:59;;;;;;;4.13;2.73;;;13.80;58.20;;;;;;5117783;28;20564;-66
2021/04/05 12:34:37;;;;;;;4.33;3.70;;;13.80;58.30;;;;;;5117003;28;20470;-66
2021/04/05 12:37:13;;;;;;;5.67;4.07;;;13.90;57.40;;;;;;5117694;28;20887;-66
2021/04/05 12:39:40;;;;;;;4.90;4.40;;;14.30;58.70;;;;;;5098779;28;20432;-67
2021/04/05 12:42:11;;;;;;;5.33;3.50;;;14.20;58.80;;;;;;5098735;28;20424;-67
2021/04/05 12:44:45;;;;;;;5.50;2.50;;;13.60;59.10;;;;;;5117040;28;20890;-66
2021/04/05 12:47:13;;;;;;;5.47;3.27;;;14.00;59.00;;;;;;5117023;28;20408;-67
2021/04/05 12:49:44;;;;;;;3.40;3.10;;;14.90;59.20;;;;;;5116609;28;20491;-66
2021/04/05 12:52:15;;;;;;;5.13;3.23;;;14.70;58.70;;;;;;5117531;28;20843;-67
2021/04/05 12:54:50;;;;;;;4.97;3.97;;;14.90;58.90;;;;;;5116700;28;20550;-67
2021/04/05 12:57:25;;;;;;;3.47;2.83;;;14.40;59.60;;;;;;5117417;28;20988;-68
2021/04/05 12:59:52;;;;;;;3.57;3.00;;;13.90;60.00;;;;;;5116829;28;20397;-66
2021/04/05 13:02:20;;;;;;;4.90;2.87;;;13.90;60.60;;;;;;5098490;28;20862;-67
2021/04/05 13:05:02;;;;;;;5.17;3.60;;;14.40;60.40;;;;;;5116614;28;20832;-67
2021/04/05 13:07:45;;;;;;;6.37;4.30;;;14.20;58.70;;;;;;5098282;28;20489;-67
2021/04/05 13:10:21;;;;;;;4.07;3.27;;;13.90;59.00;;;;;;5098351;28;20423;-66
2021/04/05 13:12:52;;;;;;;4.00;2.50;;;14.30;59.80;;;;;;5115373;28;20412;-66
2021/04/05 13:15:34;;;;;;;4.10;3.10;;;14.30;59.20;;;;;;5116519;28;20470;-66
2021/04/05 13:18:15;;;;;;;5.17;2.77;;;13.80;58.30;;;;;;5116398;28;20436;-67
2021/04/05 13:20:46;;;;;;;3.47;2.73;;;14.20;58.60;;;;;;5116592;28;20736;-66